Time;durP1;ratioP1;P1;durP2;ratioP2;P2;SDS_P1;SDS_P2;PMS_P1;PMS_P2;Temp;Humidity;BMP_temperature;BMP_pressure;BME280_temperature;BME280_humidity;BME280_pressure;Samples;Min_cycle;Max_cycle;Signal;HPM_P1;HPM_P2
2021/07/26 00:04:19;;;;;;;6.43;5.65;;;22.60;70.20;;;;;;21013330;28;20039;-20
2021/07/26 00:14:19;;;;;;;9.90;6.22;;;22.60;70.30;;;;;;20986846;28;20097;-20
2021/07/26 00:24:20;;;;;;;8.52;6.28;;;22.60;70.10;;;;;;21026843;28;20429;-20
2021/07/26 00:34:27;;;;;;;7.82;6.03;;;22.60;70.10;;;;;;21016378;28;20111;-20
2021/07/26 00:44:30;;;;;;;6.95;5.65;;;22.50;69.90;;;;;;20976891;28;20639;-20
2021/07/26 00:54:35;;;;;;;6.97;5.65;;;22.50;69.80;;;;;;21000740;28;20484;-20
2021/07/26 01:04:36;;;;;;;6.90;6.13;;;22.50;69.60;;;;;;21017416;28;20492;-21
2021/07/26 01:14:37;;;;;;;7.53;6.40;;;22.40;69.60;;;;;;21022048;28;20059;-21
2021/07/26 01:24:37;;;;;;;7.50;5.63;;;22.40;69.50;;;;;;21029888;28;20113;-20
2021/07/26 01:34:38;;;;;;;6.43;5.32;;;22.40;69.40;;;;;;20993090;28;20056;-19
2021/07/26 01:44:38;;;;;;;8.77;5.57;;;22.40;69.30;;;;;;21008555;28;20032;-20
2021/07/26 01:54:40;;;;;;;9.65;5.57;;;22.40;69.20;;;;;;21004177;28;20504;-20
2021/07/26 02:04:40;;;;;;;6.70;6.00;;;22.40;69.30;;;;;;20989424;28;20093;-19
2021/07/26 02:14:41;;;;;;;6.80;5.80;;;22.30;69.20;;;;;;20990064;28;20086;-19
2021/07/26 02:24:41;;;;;;;6.50;5.63;;;22.40;70.40;;;;;;20992106;28;20063;-19
2021/07/26 02:34:42;;;;;;;10.95;6.63;;;22.40;69.50;;;;;;20992528;28;20048;-19
2021/07/26 02:44:42;;;;;;;7.82;5.15;;;22.30;70.20;;;;;;20989973;28;20496;-19
2021/07/26 02:54:43;;;;;;;8.02;5.85;;;22.40;69.60;;;;;;20985899;28;20032;-19
2021/07/26 03:04:43;;;;;;;8.02;7.10;;;22.40;70.10;;;;;;20985582;28;20032;-19
2021/07/26 03:14:44;;;;;;;7.18;5.80;;;22.40;69.70;;;;;;20971063;22;20056;-20
2021/07/26 03:24:44;;;;;;;8.32;6.10;;;22.30;69.80;;;;;;20901824;28;20027;-21
2021/07/26 03:34:45;;;;;;;10.60;7.05;;;22.30;69.80;;;;;;20901428;28;20120;-20
2021/07/26 03:44:45;;;;;;;7.50;6.75;;;22.30;69.70;;;;;;20901149;28;20078;-19
2021/07/26 03:54:46;;;;;;;10.60;5.85;;;22.30;69.60;;;;;;20912563;28;20037;-19
2021/07/26 04:04:46;;;;;;;8.57;5.82;;;22.30;69.50;;;;;;20917566;28;20401;-21
2021/07/26 04:14:47;;;;;;;7.90;5.78;;;22.30;69.30;;;;;;20914789;28;20092;-20
2021/07/26 04:24:48;;;;;;;8.05;6.07;;;22.30;69.40;;;;;;20925866;28;20097;-20
2021/07/26 04:34:48;;;;;;;12.82;5.25;;;22.30;69.20;;;;;;20937144;28;20036;-20
2021/07/26 04:44:49;;;;;;;10.48;5.03;;;22.30;69.00;;;;;;20938624;28;20032;-20
2021/07/26 04:54:49;;;;;;;8.75;5.68;;;22.20;68.60;;;;;;20928791;28;20128;-20
2021/07/26 05:04:50;;;;;;;8.00;5.18;;;22.20;68.60;;;;;;20939177;28;20094;-20
2021/07/26 05:14:52;;;;;;;7.55;5.13;;;22.20;68.50;;;;;;20934955;28;20028;-19
2021/07/26 05:24:53;;;;;;;7.72;4.85;;;22.20;68.40;;;;;;20904812;28;20587;-20
2021/07/26 05:34:53;;;;;;;7.37;5.40;;;22.20;68.50;;;;;;20916909;28;20145;-22
2021/07/26 05:44:56;;;;;;;26.92;6.25;;;22.20;68.40;;;;;;20930138;28;20071;-20
2021/07/26 05:54:56;;;;;;;14.30;5.38;;;22.30;68.70;;;;;;20920855;28;20033;-21
2021/07/26 06:04:57;;;;;;;22.75;9.80;;;22.30;69.00;;;;;;20918716;28;20029;-21
2021/07/26 06:14:57;;;;;;;21.25;9.02;;;22.30;68.90;;;;;;20910569;28;20035;-21
2021/07/26 06:24:58;;;;;;;18.40;9.93;;;22.30;69.00;;;;;;20913431;28;20021;-21
2021/07/26 06:35:00;;;;;;;14.30;7.32;;;22.30;69.60;;;;;;20914297;28;20059;-20
2021/07/26 06:45:01;;;;;;;11.82;7.00;;;22.30;69.80;;;;;;20902301;28;20111;-20
2021/07/26 06:55:02;;;;;;;8.57;5.00;;;22.30;69.50;;;;;;20903448;28;20107;-21
2021/07/26 07:05:03;;;;;;;5.93;4.22;;;22.40;69.00;;;;;;20903111;28;20025;-21
2021/07/26 07:15:04;;;;;;;6.93;4.00;;;22.40;68.80;;;;;;20902279;28;20470;-21
2021/07/26 07:25:06;;;;;;;6.15;3.60;;;22.40;68.30;;;;;;20901425;28;20049;-20
2021/07/26 07:35:07;;;;;;;9.55;4.57;;;22.40;67.80;;;;;;20901530;28;20033;-20
2021/07/26 07:45:08;;;;;;;9.93;4.93;;;22.50;69.10;;;;;;20899881;28;20437;-20
2021/07/26 07:55:09;;;;;;;10.00;4.18;;;22.40;69.40;;;;;;20900645;28;20036;-20
2021/07/26 08:05:10;;;;;;;9.90;4.13;;;22.50;69.00;;;;;;20902737;28;20116;-20
2021/07/26 08:15:11;;;;;;;13.15;5.88;;;22.50;69.00;;;;;;20899730;28;20021;-20
2021/07/26 08:25:13;;;;;;;5.35;3.70;;;22.50;69.10;;;;;;20909917;28;20059;-20
2021/07/26 08:35:13;;;;;;;7.65;4.38;;;22.50;69.20;;;;;;20924209;28;20040;-20
2021/07/26 08:45:14;;;;;;;8.25;4.32;;;22.50;69.40;;;;;;20938350;28;20481;-20
2021/07/26 08:55:20;;;;;;;14.40;5.57;;;22.60;69.50;;;;;;20928973;28;20111;-20
2021/07/26 09:05:21;;;;;;;7.45;3.47;;;22.50;69.50;;;;;;20930626;28;20036;-21
2021/07/26 09:15:27;;;;;;;7.10;3.20;;;22.60;69.50;;;;;;20932850;28;20029;-21
2021/07/26 09:25:30;;;;;;;6.18;3.60;;;22.60;69.50;;;;;;20936556;28;20037;-20
2021/07/26 09:35:31;;;;;;;6.18;3.53;;;22.70;69.50;;;;;;20933721;28;20444;-20
2021/07/26 09:45:31;;;;;;;7.82;4.13;;;22.70;69.30;;;;;;20935372;28;20032;-20
2021/07/26 09:55:33;;;;;;;6.63;3.90;;;22.70;69.30;;;;;;20923610;28;20033;-20
2021/07/26 10:05:35;;;;;;;6.57;4.15;;;22.70;69.00;;;;;;20924236;28;20041;-20
2021/07/26 10:15:37;;;;;;;4.78;3.20;;;22.70;69.00;;;;;;20908799;28;20177;-21
2021/07/26 10:25:40;;;;;;;8.23;3.67;;;22.80;69.60;;;;;;20917180;28;20058;-20
2021/07/26 10:35:49;;;;;;;3.80;3.15;;;22.80;69.10;;;;;;20929540;28;20037;-20
2021/07/26 10:45:49;;;;;;;4.25;3.13;;;22.80;69.00;;;;;;20915907;28;20041;-21
2021/07/26 10:56:06;;;;;;;4.88;3.33;;;22.80;69.00;;;;;;20904099;28;20457;-20
2021/07/26 11:06:07;;;;;;;7.97;3.63;;;22.90;69.30;;;;;;20918568;28;20103;-21
2021/07/26 11:16:07;;;;;;;9.05;4.32;;;23.00;69.40;;;;;;20900832;28;20060;-20
2021/07/26 11:26:18;;;;;;;14.20;4.30;;;23.00;69.30;;;;;;20899653;28;20559;-20
2021/07/26 11:36:22;;;;;;;14.88;4.85;;;23.10;69.70;;;;;;20898432;28;20486;-20
2021/07/26 11:46:24;;;;;;;8.38;3.88;;;23.20;69.70;;;;;;20898470;28;20033;-20
2021/07/26 11:56:28;;;;;;;16.63;3.78;;;23.20;69.80;;;;;;20891077;28;20532;-21
2021/07/26 12:06:30;;;;;;;12.75;3.92;;;23.20;69.90;;;;;;20899958;28;20032;-20
2021/07/26 12:16:30;;;;;;;13.75;3.45;;;23.20;69.90;;;;;;20909397;28;20029;-20
2021/07/26 12:26:31;;;;;;;16.40;4.68;;;23.20;69.90;;;;;;20912781;28;20051;-19
2021/07/26 12:36:34;;;;;;;10.18;3.75;;;23.30;69.70;;;;;;20913055;28;20025;-18
2021/07/26 12:46:36;;;;;;;23.25;4.65;;;23.30;69.90;;;;;;20911812;28;20036;-20
2021/07/26 12:56:36;;;;;;;9.68;3.95;;;23.40;69.80;;;;;;20910291;28;20033;-20
2021/07/26 13:06:37;;;;;;;19.27;4.50;;;23.30;69.50;;;;;;20910201;28;20083;-19
2021/07/26 13:16:38;;;;;;;13.18;3.72;;;23.30;69.50;;;;;;20910920;28;21022;-21
2021/07/26 13:26:38;;;;;;;10.18;3.60;;;23.30;69.50;;;;;;20930499;28;20055;-21
2021/07/26 13:36:39;;;;;;;11.00;5.00;;;23.20;69.30;;;;;;20934087;28;20029;-19
2021/07/26 13:46:40;;;;;;;9.57;3.65;;;23.20;69.30;;;;;;20933485;28;20025;-21
2021/07/26 13:56:40;;;;;;;6.63;3.78;;;23.20;69.20;;;;;;20923040;28;20044;-21
2021/07/26 14:06:41;;;;;;;6.57;3.38;;;23.20;69.10;;;;;;20926221;28;20033;-20
2021/07/26 14:16:41;;;;;;;9.88;3.28;;;23.20;69.10;;;;;;20926367;28;20037;-20
2021/07/26 14:26:42;;;;;;;7.70;3.65;;;23.20;69.10;;;;;;20925478;28;20033;-20
2021/07/26 14:36:43;;;;;;;5.40;2.63;;;23.20;69.10;;;;;;20927560;28;20029;-20
2021/07/26 14:46:43;;;;;;;12.93;3.80;;;23.20;69.00;;;;;;20929969;28;20029;-20
2021/07/26 14:56:44;;;;;;;3.15;2.42;;;23.10;68.90;;;;;;20919206;28;20041;-20
2021/07/26 15:06:44;;;;;;;7.78;2.92;;;23.10;68.90;;;;;;20921893;28;20033;-20
2021/07/26 15:16:45;;;;;;;7.55;2.63;;;23.10;68.90;;;;;;20929096;28;20029;-20
2021/07/26 15:26:45;;;;;;;4.57;2.53;;;23.10;69.00;;;;;;20921947;28;20033;-20
2021/07/26 15:36:46;;;;;;;6.18;2.42;;;23.10;68.90;;;;;;20911756;28;20044;-20
2021/07/26 15:46:46;;;;;;;14.05;3.35;;;23.10;68.10;;;;;;20907154;28;20037;-20
2021/07/26 15:56:47;;;;;;;10.05;3.83;;;23.10;68.10;;;;;;20918923;28;20025;-20
2021/07/26 16:06:47;;;;;;;11.87;3.13;;;23.20;67.90;;;;;;20916914;28;20036;-20
2021/07/26 16:16:49;;;;;;;5.40;3.20;;;23.20;67.70;;;;;;20915620;28;20471;-20
2021/07/26 16:26:49;;;;;;;7.38;2.58;;;23.30;67.80;;;;;;20915160;28;20033;-20
2021/07/26 16:36:50;;;;;;;14.57;3.70;;;23.20;67.90;;;;;;20926920;28;20039;-20
2021/07/26 16:46:50;;;;;;;8.48;2.58;;;23.40;67.80;;;;;;20912782;28;20036;-20
2021/07/26 16:56:51;;;;;;;9.10;3.80;;;23.50;67.60;;;;;;20913295;28;20041;-20
2021/07/26 17:06:51;;;;;;;14.85;4.88;;;23.50;67.50;;;;;;20910849;28;20055;-21
2021/07/26 17:16:52;;;;;;;20.55;5.97;;;23.50;67.70;;;;;;20911442;28;20097;-20
2021/07/26 17:26:52;;;;;;;18.63;4.47;;;23.60;68.40;;;;;;20924075;28;20057;-21
2021/07/26 17:36:54;;;;;;;27.50;5.68;;;23.70;69.20;;;;;;20921646;28;20037;-21
2021/07/26 17:46:55;;;;;;;20.42;5.45;;;23.80;70.80;;;;;;20919452;28;20025;-20
2021/07/26 17:56:56;;;;;;;13.98;4.45;;;23.90;69.30;;;;;;20909547;28;20074;-21
2021/07/26 18:06:57;;;;;;;15.88;4.47;;;23.90;68.90;;;;;;20910403;28;20111;-21
2021/07/26 18:16:57;;;;;;;19.77;4.53;;;23.80;68.60;;;;;;20907048;28;20103;-21
2021/07/26 18:27:00;;;;;;;24.98;5.03;;;23.90;68.30;;;;;;20906813;28;20071;-20
2021/07/26 18:37:01;;;;;;;13.02;3.65;;;23.90;68.00;;;;;;20905488;28;20078;-20
2021/07/26 18:47:02;;;;;;;13.27;4.45;;;23.90;68.00;;;;;;20905525;28;20060;-20
2021/07/26 18:57:02;;;;;;;12.73;4.57;;;23.70;68.20;;;;;;20904100;28;20021;-20
2021/07/26 19:07:03;;;;;;;6.93;3.38;;;23.70;67.70;;;;;;20902915;28;20111;-20
2021/07/26 19:17:04;;;;;;;8.48;3.17;;;23.60;66.90;;;;;;20901479;28;20029;-20
2021/07/26 19:27:04;;;;;;;8.73;3.13;;;23.50;67.10;;;;;;20900525;28;20443;-20
2021/07/26 19:37:05;;;;;;;7.90;2.78;;;23.40;66.80;;;;;;20883799;28;20104;-21
2021/07/26 19:47:09;;;;;;;7.57;2.80;;;23.40;67.00;;;;;;20913996;28;20047;-20
2021/07/26 19:57:10;;;;;;;6.18;2.72;;;23.30;67.10;;;;;;20913793;28;20025;-21
2021/07/26 20:07:11;;;;;;;5.22;2.83;;;23.20;67.10;;;;;;20912959;28;20439;-21
2021/07/26 20:17:11;;;;;;;5.97;2.60;;;23.20;66.70;;;;;;20899819;28;20058;-20
2021/07/26 20:27:12;;;;;;;4.07;2.50;;;23.20;66.80;;;;;;20900923;28;20112;-20
2021/07/26 20:37:12;;;;;;;3.70;2.65;;;23.10;66.70;;;;;;20916570;28;20471;-20
2021/07/26 20:47:14;;;;;;;17.63;5.07;;;23.10;66.50;;;;;;20913153;28;20099;-20
2021/07/26 20:57:15;;;;;;;14.55;4.13;;;23.20;66.30;;;;;;20912214;28;20047;-19
2021/07/26 21:07:16;;;;;;;8.23;2.88;;;23.20;66.70;;;;;;20911982;28;20029;-19
2021/07/26 21:17:28;;;;;;;8.52;3.05;;;23.20;66.80;;;;;;20868840;28;20045;-19
2021/07/26 21:27:30;;;;;;;5.53;3.50;;;23.30;66.80;;;;;;20894622;28;20082;-19
2021/07/26 21:37:31;;;;;;;8.60;3.05;;;23.30;66.70;;;;;;20907195;28;20481;-20
2021/07/26 21:47:31;;;;;;;6.85;4.05;;;23.20;66.60;;;;;;20904607;28;20464;-19
2021/07/26 21:57:32;;;;;;;7.07;3.72;;;23.30;66.70;;;;;;20905544;28;20112;-20
2021/07/26 22:07:32;;;;;;;9.00;2.42;;;23.30;66.60;;;;;;21047931;22;20051;-20
2021/07/26 22:17:33;;;;;;;5.97;2.23;;;23.20;66.70;;;;;;21057878;28;20024;-20
2021/07/26 22:27:33;;;;;;;14.77;3.67;;;23.20;66.60;;;;;;21015394;28;20032;-19
2021/07/26 22:37:34;;;;;;;8.27;2.90;;;23.10;66.40;;;;;;21015614;28;20396;-20
2021/07/26 22:47:35;;;;;;;7.57;2.38;;;23.10;66.60;;;;;;21071009;28;20024;-19
2021/07/26 22:57:36;;;;;;;8.65;3.55;;;23.10;66.50;;;;;;21071763;28;20028;-20
2021/07/26 23:07:36;;;;;;;5.78;2.00;;;23.00;66.20;;;;;;21057512;28;20541;-18
2021/07/26 23:17:37;;;;;;;4.17;1.67;;;23.00;65.30;;;;;;21047633;28;20040;-19
2021/07/26 23:27:37;;;;;;;8.52;2.03;;;23.00;65.30;;;;;;21042351;28;20589;-20
2021/07/26 23:37:38;;;;;;;2.42;1.23;;;22.90;65.00;;;;;;21064283;28;20024;-19
2021/07/26 23:47:39;;;;;;;3.35;1.80;;;22.90;64.70;;;;;;21049220;28;20042;-19
2021/07/26 23:57:39;;;;;;;4.43;1.60;;;22.90;64.70;;;;;;21035790;28;20493;-19
